sensor_id;sensor_type;location;lat;lon;timestamp;pressure;altitude;pressure_sealevel;temperature;humidity
67052;BME280;53957;47.222;18.670;2022-12-26T00:00:23;100721.50;;;5.88;100.00
67052;BME280;53957;47.222;18.670;2022-12-26T00:03:28;100722.47;;;5.99;100.00
67052;BME280;53957;47.222;18.670;2022-12-26T00:06:32;100728.81;;;5.69;100.00
67052;BME280;53957;47.222;18.670;2022-12-26T00:09:35;100732.28;;;5.69;100.00
67052;BME280;53957;47.222;18.670;2022-12-26T00:12:47;100727.38;;;5.61;100.00
67052;BME280;53957;47.222;18.670;2022-12-26T00:16:15;100731.47;;;5.40;100.00
67052;BME280;53957;47.222;18.670;2022-12-26T00:19:18;100727.91;;;5.34;100.00
67052;BME280;53957;47.222;18.670;2022-12-26T00:22:29;100731.72;;;5.26;100.00
67052;BME280;53957;47.222;18.670;2022-12-26T00:25:33;100725.34;;;5.39;100.00
67052;BME280;53957;47.222;18.670;2022-12-26T00:29:00;100732.00;;;5.13;100.00
67052;BME280;53957;47.222;18.670;2022-12-26T00:32:05;100730.72;;;5.15;100.00
67052;BME280;53957;47.222;18.670;2022-12-26T00:35:11;100736.25;;;5.14;100.00
67052;BME280;53957;47.222;18.670;2022-12-26T00:38:14;100742.03;;;4.99;100.00
67052;BME280;53957;47.222;18.670;2022-12-26T00:41:30;100726.31;;;4.80;100.00
67052;BME280;53957;47.222;18.670;2022-12-26T00:44:43;100729.34;;;5.13;100.00
67052;BME280;53957;47.222;18.670;2022-12-26T00:47:46;100723.66;;;4.80;100.00
67052;BME280;53957;47.222;18.670;2022-12-26T00:50:49;100728.44;;;5.07;100.00
67052;BME280;53957;47.222;18.670;2022-12-26T00:53:53;100729.88;;;5.27;100.00
67052;BME280;53957;47.222;18.670;2022-12-26T00:57:16;100722.94;;;5.09;100.00
67052;BME280;53957;47.222;18.670;2022-12-26T01:00:21;100722.50;;;5.00;100.00
67052;BME280;53957;47.222;18.670;2022-12-26T01:03:24;100718.66;;;5.08;100.00
67052;BME280;53957;47.222;18.670;2022-12-26T01:06:28;100722.72;;;4.87;100.00
67052;BME280;53957;47.222;18.670;2022-12-26T01:09:31;100718.81;;;4.77;100.00
67052;BME280;53957;47.222;18.670;2022-12-26T01:12:35;100721.81;;;4.69;100.00
67052;BME280;53957;47.222;18.670;2022-12-26T01:15:38;100718.94;;;4.59;100.00
67052;BME280;53957;47.222;18.670;2022-12-26T01:18:41;100722.88;;;4.68;100.00
67052;BME280;53957;47.222;18.670;2022-12-26T01:21:44;100708.81;;;4.79;100.00
67052;BME280;53957;47.222;18.670;2022-12-26T01:24:55;100700.34;;;4.65;100.00
67052;BME280;53957;47.222;18.670;2022-12-26T01:27:58;100693.56;;;4.70;100.00
67052;BME280;53957;47.222;18.670;2022-12-26T01:31:09;100695.03;;;4.89;100.00
67052;BME280;53957;47.222;18.670;2022-12-26T01:34:12;100699.75;;;5.28;100.00
67052;BME280;53957;47.222;18.670;2022-12-26T01:37:15;100690.59;;;5.19;100.00
67052;BME280;53957;47.222;18.670;2022-12-26T01:40:18;100697.50;;;5.48;100.00
67052;BME280;53957;47.222;18.670;2022-12-26T01:43:52;100691.97;;;5.21;100.00
67052;BME280;53957;47.222;18.670;2022-12-26T01:46:55;100688.03;;;4.83;100.00
67052;BME280;53957;47.222;18.670;2022-12-26T01:53:50;100695.03;;;4.77;100.00
67052;BME280;53957;47.222;18.670;2022-12-26T01:57:00;100688.16;;;4.64;100.00
67052;BME280;53957;47.222;18.670;2022-12-26T02:00:06;100678.72;;;4.68;100.00
67052;BME280;53957;47.222;18.670;2022-12-26T02:03:20;100678.31;;;5.12;100.00
67052;BME280;53957;47.222;18.670;2022-12-26T02:06:43;100673.03;;;5.41;100.00
67052;BME280;53957;47.222;18.670;2022-12-26T02:09:45;100665.34;;;5.40;100.00
67052;BME280;53957;47.222;18.670;2022-12-26T02:12:52;100658.69;;;5.37;100.00
67052;BME280;53957;47.222;18.670;2022-12-26T02:15:56;100665.75;;;5.48;100.00
67052;BME280;53957;47.222;18.670;2022-12-26T02:19:00;100662.28;;;5.31;100.00
67052;BME280;53957;47.222;18.670;2022-12-26T02:33:25;100648.44;;;5.41;100.00
67052;BME280;53957;47.222;18.670;2022-12-26T02:47:20;100640.03;;;5.61;100.00
67052;BME280;53957;47.222;18.670;2022-12-26T02:54:36;100641.78;;;5.55;100.00
67052;BME280;53957;47.222;18.670;2022-12-26T02:58:22;100646.91;;;5.45;100.00
67052;BME280;53957;47.222;18.670;2022-12-26T03:01:52;100651.78;;;5.36;100.00
67052;BME280;53957;47.222;18.670;2022-12-26T03:09:34;100640.63;;;5.05;100.00
67052;BME280;53957;47.222;18.670;2022-12-26T03:12:54;100637.75;;;4.95;100.00
67052;BME280;53957;47.222;18.670;2022-12-26T03:16:20;100632.88;;;4.87;100.00
67052;BME280;53957;47.222;18.670;2022-12-26T03:20:25;100631.97;;;4.69;100.00
67052;BME280;53957;47.222;18.670;2022-12-26T03:23:30;100624.94;;;4.75;100.00
67052;BME280;53957;47.222;18.670;2022-12-26T03:26:39;100627.25;;;4.83;100.00
67052;BME280;53957;47.222;18.670;2022-12-26T03:30:09;100618.94;;;4.91;100.00
67052;BME280;53957;47.222;18.670;2022-12-26T03:34:04;100623.16;;;5.04;100.00
67052;BME280;53957;47.222;18.670;2022-12-26T03:37:54;100628.03;;;4.83;100.00
67052;BME280;53957;47.222;18.670;2022-12-26T03:41:12;100622.25;;;5.27;100.00
67052;BME280;53957;47.222;18.670;2022-12-26T03:44:57;100623.25;;;5.09;100.00
67052;BME280;53957;47.222;18.670;2022-12-26T03:48:32;100636.00;;;4.72;100.00
67052;BME280;53957;47.222;18.670;2022-12-26T03:55:54;100629.31;;;4.69;100.00
67052;BME280;53957;47.222;18.670;2022-12-26T03:59:25;100639.09;;;4.57;100.00
67052;BME280;53957;47.222;18.670;2022-12-26T04:02:48;100650.63;;;4.39;100.00
67052;BME280;53957;47.222;18.670;2022-12-26T04:06:21;100649.25;;;4.36;100.00
67052;BME280;53957;47.222;18.670;2022-12-26T04:10:01;100648.53;;;4.53;100.00
67052;BME280;53957;47.222;18.670;2022-12-26T04:13:37;100658.53;;;4.50;100.00
67052;BME280;53957;47.222;18.670;2022-12-26T04:17:21;100668.88;;;4.52;100.00
67052;BME280;53957;47.222;18.670;2022-12-26T04:20:51;100672.06;;;4.18;100.00
67052;BME280;53957;47.222;18.670;2022-12-26T04:24:02;100682.28;;;4.50;100.00
67052;BME280;53957;47.222;18.670;2022-12-26T04:27:31;100678.41;;;4.17;100.00
67052;BME280;53957;47.222;18.670;2022-12-26T04:31:01;100675.16;;;3.92;100.00
67052;BME280;53957;47.222;18.670;2022-12-26T04:34:34;100673.72;;;3.77;100.00
67052;BME280;53957;47.222;18.670;2022-12-26T04:38:02;100657.28;;;3.63;100.00
67052;BME280;53957;47.222;18.670;2022-12-26T04:41:30;100665.28;;;3.57;100.00
67052;BME280;53957;47.222;18.670;2022-12-26T04:44:54;100674.37;;;3.61;100.00
67052;BME280;53957;47.222;18.670;2022-12-26T04:48:18;100669.06;;;3.49;100.00
67052;BME280;53957;47.222;18.670;2022-12-26T04:51:41;100661.78;;;3.32;100.00
67052;BME280;53957;47.222;18.670;2022-12-26T04:55:04;100674.63;;;3.41;100.00
67052;BME280;53957;47.222;18.670;2022-12-26T04:58:07;100678.72;;;3.06;100.00
67052;BME280;53957;47.222;18.670;2022-12-26T05:01:30;100664.31;;;3.39;100.00
67052;BME280;53957;47.222;18.670;2022-12-26T05:04:51;100679.72;;;3.54;100.00
67052;BME280;53957;47.222;18.670;2022-12-26T05:08:24;100674.91;;;3.20;100.00
67052;BME280;53957;47.222;18.670;2022-12-26T05:11:46;100687.94;;;3.76;100.00
67052;BME280;53957;47.222;18.670;2022-12-26T05:15:09;100681.81;;;3.52;100.00
67052;BME280;53957;47.222;18.670;2022-12-26T05:18:13;100682.50;;;3.59;100.00
67052;BME280;53957;47.222;18.670;2022-12-26T05:21:35;100679.12;;;3.40;100.00
67052;BME280;53957;47.222;18.670;2022-12-26T05:24:57;100683.56;;;3.70;100.00
67052;BME280;53957;47.222;18.670;2022-12-26T05:28:27;100675.94;;;3.50;100.00
67052;BME280;53957;47.222;18.670;2022-12-26T05:31:45;100668.22;;;3.18;100.00
67052;BME280;53957;47.222;18.670;2022-12-26T05:34:49;100648.41;;;3.15;100.00
67052;BME280;53957;47.222;18.670;2022-12-26T05:37:56;100661.72;;;3.20;100.00
67052;BME280;53957;47.222;18.670;2022-12-26T05:41:24;100667.28;;;3.12;100.00
67052;BME280;53957;47.222;18.670;2022-12-26T05:44:27;100654.75;;;3.26;100.00
67052;BME280;53957;47.222;18.670;2022-12-26T05:47:30;100666.22;;;3.32;100.00
67052;BME280;53957;47.222;18.670;2022-12-26T05:50:33;100671.19;;;2.91;100.00
67052;BME280;53957;47.222;18.670;2022-12-26T05:53:57;100666.28;;;2.76;100.00
67052;BME280;53957;47.222;18.670;2022-12-26T05:57:01;100673.28;;;2.64;100.00
67052;BME280;53957;47.222;18.670;2022-12-26T06:00:14;100664.47;;;2.77;100.00
67052;BME280;53957;47.222;18.670;2022-12-26T06:03:17;100657.44;;;2.89;100.00
67052;BME280;53957;47.222;18.670;2022-12-26T06:06:21;100654.69;;;3.14;100.00
67052;BME280;53957;47.222;18.670;2022-12-26T06:09:26;100659.12;;;2.83;100.00
67052;BME280;53957;47.222;18.670;2022-12-26T06:12:30;100671.53;;;3.13;100.00
67052;BME280;53957;47.222;18.670;2022-12-26T06:15:37;100674.31;;;2.81;100.00
67052;BME280;53957;47.222;18.670;2022-12-26T06:18:40;100669.91;;;2.56;100.00
67052;BME280;53957;47.222;18.670;2022-12-26T06:21:43;100668.13;;;2.32;100.00
67052;BME280;53957;47.222;18.670;2022-12-26T06:25:06;100669.31;;;2.11;100.00
67052;BME280;53957;47.222;18.670;2022-12-26T06:28:10;100674.28;;;1.93;100.00
67052;BME280;53957;47.222;18.670;2022-12-26T06:31:21;100673.66;;;1.73;100.00
67052;BME280;53957;47.222;18.670;2022-12-26T06:34:25;100678.53;;;1.95;100.00
67052;BME280;53957;47.222;18.670;2022-12-26T06:37:32;100679.09;;;2.03;100.00
67052;BME280;53957;47.222;18.670;2022-12-26T06:40:40;100671.63;;;2.00;100.00
67052;BME280;53957;47.222;18.670;2022-12-26T06:43:45;100663.81;;;2.12;100.00
67052;BME280;53957;47.222;18.670;2022-12-26T06:46:49;100659.91;;;2.21;100.00
67052;BME280;53957;47.222;18.670;2022-12-26T06:49:52;100662.22;;;2.11;100.00
67052;BME280;53957;47.222;18.670;2022-12-26T06:52:55;100658.09;;;1.97;100.00
67052;BME280;53957;47.222;18.670;2022-12-26T06:56:08;100658.66;;;1.99;100.00
67052;BME280;53957;47.222;18.670;2022-12-26T06:59:11;100652.56;;;2.05;100.00
67052;BME280;53957;47.222;18.670;2022-12-26T07:02:15;100655.00;;;2.06;100.00
67052;BME280;53957;47.222;18.670;2022-12-26T07:05:39;100650.09;;;2.10;100.00
67052;BME280;53957;47.222;18.670;2022-12-26T07:08:42;100659.00;;;2.09;100.00
67052;BME280;53957;47.222;18.670;2022-12-26T07:11:48;100669.94;;;2.06;100.00
67052;BME280;53957;47.222;18.670;2022-12-26T07:14:53;100675.22;;;2.06;100.00
67052;BME280;53957;47.222;18.670;2022-12-26T07:18:04;100673.47;;;2.25;100.00
67052;BME280;53957;47.222;18.670;2022-12-26T07:21:13;100676.12;;;2.44;100.00
67052;BME280;53957;47.222;18.670;2022-12-26T07:24:20;100677.25;;;2.73;100.00
67052;BME280;53957;47.222;18.670;2022-12-26T07:27:23;100681.78;;;2.66;100.00
67052;BME280;53957;47.222;18.670;2022-12-26T07:30:27;100701.41;;;2.88;100.00
67052;BME280;53957;47.222;18.670;2022-12-26T07:33:51;100703.47;;;3.05;100.00
67052;BME280;53957;47.222;18.670;2022-12-26T07:36:57;100692.47;;;3.27;100.00
67052;BME280;53957;47.222;18.670;2022-12-26T07:40:00;100689.66;;;3.70;100.00
67052;BME280;53957;47.222;18.670;2022-12-26T07:43:03;100704.87;;;2.89;100.00
67052;BME280;53957;47.222;18.670;2022-12-26T07:46:06;100714.28;;;3.15;100.00
67052;BME280;53957;47.222;18.670;2022-12-26T07:49:10;100720.16;;;3.17;100.00
67052;BME280;53957;47.222;18.670;2022-12-26T07:52:14;100715.91;;;3.16;100.00
67052;BME280;53957;47.222;18.670;2022-12-26T07:55:17;100717.72;;;3.16;100.00
67052;BME280;53957;47.222;18.670;2022-12-26T07:58:23;100720.06;;;3.73;100.00
67052;BME280;53957;47.222;18.670;2022-12-26T08:01:26;100722.03;;;4.32;100.00
67052;BME280;53957;47.222;18.670;2022-12-26T08:04:33;100724.50;;;5.51;100.00
67052;BME280;53957;47.222;18.670;2022-12-26T08:07:35;100722.03;;;6.19;100.00
67052;BME280;53957;47.222;18.670;2022-12-26T08:10:39;100715.34;;;5.99;100.00
67052;BME280;53957;47.222;18.670;2022-12-26T08:13:42;100710.12;;;5.58;100.00
67052;BME280;53957;47.222;18.670;2022-12-26T08:16:45;100717.78;;;6.74;100.00
67052;BME280;53957;47.222;18.670;2022-12-26T08:19:54;100716.41;;;6.32;100.00
67052;BME280;53957;47.222;18.670;2022-12-26T08:22:57;100716.47;;;7.38;100.00
67052;BME280;53957;47.222;18.670;2022-12-26T08:26:08;100720.06;;;7.27;100.00
67052;BME280;53957;47.222;18.670;2022-12-26T08:29:12;100731.41;;;8.31;100.00
67052;BME280;53957;47.222;18.670;2022-12-26T08:32:15;100732.06;;;8.86;100.00
67052;BME280;53957;47.222;18.670;2022-12-26T08:35:18;100724.31;;;9.48;100.00
67052;BME280;53957;47.222;18.670;2022-12-26T08:38:21;100723.81;;;9.72;100.00
67052;BME280;53957;47.222;18.670;2022-12-26T08:41:27;100726.22;;;9.74;100.00
67052;BME280;53957;47.222;18.670;2022-12-26T08:44:30;100717.72;;;10.18;100.00
67052;BME280;53957;47.222;18.670;2022-12-26T08:47:33;100720.94;;;10.46;100.00
67052;BME280;53957;47.222;18.670;2022-12-26T08:50:35;100723.34;;;10.42;100.00
67052;BME280;53957;47.222;18.670;2022-12-26T08:53:43;100729.41;;;10.74;100.00
67052;BME280;53957;47.222;18.670;2022-12-26T08:57:07;100743.13;;;11.17;100.00
67052;BME280;53957;47.222;18.670;2022-12-26T09:00:11;100731.97;;;11.10;100.00
67052;BME280;53957;47.222;18.670;2022-12-26T09:03:15;100719.44;;;11.60;100.00
67052;BME280;53957;47.222;18.670;2022-12-26T09:06:19;100729.88;;;10.97;100.00
67052;BME280;53957;47.222;18.670;2022-12-26T09:09:22;100732.28;;;10.98;100.00
67052;BME280;53957;47.222;18.670;2022-12-26T09:12:25;100741.66;;;11.46;100.00
67052;BME280;53957;47.222;18.670;2022-12-26T09:15:28;100740.09;;;10.69;100.00
67052;BME280;53957;47.222;18.670;2022-12-26T09:18:32;100751.31;;;10.66;100.00
67052;BME280;53957;47.222;18.670;2022-12-26T09:21:35;100739.06;;;10.44;100.00
67052;BME280;53957;47.222;18.670;2022-12-26T09:24:38;100747.31;;;10.53;100.00
67052;BME280;53957;47.222;18.670;2022-12-26T09:27:41;100749.72;;;10.59;100.00
67052;BME280;53957;47.222;18.670;2022-12-26T09:30:45;100753.69;;;10.67;100.00
67052;BME280;53957;47.222;18.670;2022-12-26T09:33:48;100745.19;;;10.44;100.00
67052;BME280;53957;47.222;18.670;2022-12-26T09:36:52;100754.53;;;11.43;100.00
67052;BME280;53957;47.222;18.670;2022-12-26T09:39:54;100756.50;;;11.12;100.00
67052;BME280;53957;47.222;18.670;2022-12-26T09:53:27;100752.75;;;11.18;100.00
67052;BME280;53957;47.222;18.670;2022-12-26T09:56:32;100750.62;;;11.20;100.00
67052;BME280;53957;47.222;18.670;2022-12-26T10:00:01;100745.44;;;11.39;100.00
67052;BME280;53957;47.222;18.670;2022-12-26T10:03:13;100745.22;;;11.31;100.00
67052;BME280;53957;47.222;18.670;2022-12-26T10:09:50;100757.62;;;11.61;100.00
67052;BME280;53957;47.222;18.670;2022-12-26T10:13:15;100753.09;;;11.56;100.00
67052;BME280;53957;47.222;18.670;2022-12-26T10:16:32;100745.13;;;11.51;100.00
67052;BME280;53957;47.222;18.670;2022-12-26T10:23:38;100736.19;;;12.11;100.00
67052;BME280;53957;47.222;18.670;2022-12-26T10:26:48;100729.81;;;12.07;100.00
67052;BME280;53957;47.222;18.670;2022-12-26T10:30:04;100726.13;;;12.03;100.00
67052;BME280;53957;47.222;18.670;2022-12-26T10:33:36;100723.09;;;12.10;100.00
67052;BME280;53957;47.222;18.670;2022-12-26T10:36:49;100707.25;;;12.48;100.00
67052;BME280;53957;47.222;18.670;2022-12-26T10:40:20;100707.34;;;12.08;100.00
67052;BME280;53957;47.222;18.670;2022-12-26T10:43:32;100700.22;;;12.57;100.00
67052;BME280;53957;47.222;18.670;2022-12-26T10:46:48;100712.28;;;12.54;100.00
67052;BME280;53957;47.222;18.670;2022-12-26T10:49:56;100707.63;;;12.06;100.00
67052;BME280;53957;47.222;18.670;2022-12-26T10:53:03;100694.13;;;12.22;100.00
67052;BME280;53957;47.222;18.670;2022-12-26T10:56:07;100690.50;;;11.68;100.00
67052;BME280;53957;47.222;18.670;2022-12-26T10:59:20;100692.97;;;11.99;100.00
67052;BME280;53957;47.222;18.670;2022-12-26T11:05:27;100679.38;;;11.90;100.00
67052;BME280;53957;47.222;18.670;2022-12-26T11:08:50;100674.50;;;12.02;100.00
67052;BME280;53957;47.222;18.670;2022-12-26T11:11:53;100674.03;;;11.90;100.00
67052;BME280;53957;47.222;18.670;2022-12-26T11:14:58;100674.34;;;11.49;100.00
67052;BME280;53957;47.222;18.670;2022-12-26T11:18:08;100661.09;;;11.73;100.00
67052;BME280;53957;47.222;18.670;2022-12-26T11:24:24;100658.44;;;11.73;100.00
67052;BME280;53957;47.222;18.670;2022-12-26T11:27:27;100663.19;;;11.41;100.00
67052;BME280;53957;47.222;18.670;2022-12-26T11:30:32;100650.09;;;11.40;100.00
67052;BME280;53957;47.222;18.670;2022-12-26T11:33:41;100650.37;;;11.38;100.00
67052;BME280;53957;47.222;18.670;2022-12-26T11:36:47;100652.28;;;11.33;100.00
67052;BME280;53957;47.222;18.670;2022-12-26T11:39:51;100655.62;;;11.09;100.00
67052;BME280;53957;47.222;18.670;2022-12-26T11:42:56;100664.97;;;11.01;100.00
67052;BME280;53957;47.222;18.670;2022-12-26T11:46:00;100659.62;;;11.11;100.00
67052;BME280;53957;47.222;18.670;2022-12-26T11:49:04;100648.75;;;10.92;100.00
67052;BME280;53957;47.222;18.670;2022-12-26T11:52:38;100648.47;;;10.99;100.00
67052;BME280;53957;47.222;18.670;2022-12-26T11:55:42;100645.72;;;11.09;100.00
67052;BME280;53957;47.222;18.670;2022-12-26T11:58:45;100648.16;;;11.06;100.00
67052;BME280;53957;47.222;18.670;2022-12-26T12:02:15;100637.56;;;10.85;100.00
67052;BME280;53957;47.222;18.670;2022-12-26T12:12:35;100631.25;;;10.66;100.00
67052;BME280;53957;47.222;18.670;2022-12-26T12:15:53;100629.63;;;10.70;100.00
67052;BME280;53957;47.222;18.670;2022-12-26T12:25:55;100629.56;;;10.90;100.00
67052;BME280;53957;47.222;18.670;2022-12-26T12:36:09;100622.97;;;11.22;100.00
67052;BME280;53957;47.222;18.670;2022-12-26T12:43:03;100637.13;;;11.23;100.00
67052;BME280;53957;47.222;18.670;2022-12-26T12:46:26;100639.59;;;11.09;100.00
67052;BME280;53957;47.222;18.670;2022-12-26T12:49:57;100637.19;;;11.12;100.00
67052;BME280;53957;47.222;18.670;2022-12-26T13:00:38;100615.16;;;10.86;100.00
67052;BME280;53957;47.222;18.670;2022-12-26T13:04:11;100611.94;;;10.89;100.00
67052;BME280;53957;47.222;18.670;2022-12-26T13:07:24;100606.59;;;10.89;100.00
67052;BME280;53957;47.222;18.670;2022-12-26T13:10:31;100609.53;;;10.93;100.00
67052;BME280;53957;47.222;18.670;2022-12-26T13:13:41;100610.41;;;10.78;100.00
67052;BME280;53957;47.222;18.670;2022-12-26T13:16:57;100613.84;;;10.78;100.00
67052;BME280;53957;47.222;18.670;2022-12-26T13:20:42;100600.31;;;10.65;100.00
67052;BME280;53957;47.222;18.670;2022-12-26T13:23:57;100596.81;;;10.74;100.00
67052;BME280;53957;47.222;18.670;2022-12-26T13:27:24;100606.44;;;10.65;100.00
67052;BME280;53957;47.222;18.670;2022-12-26T13:30:29;100604.84;;;10.64;100.00
67052;BME280;53957;47.222;18.670;2022-12-26T13:33:32;100610.75;;;10.56;100.00
67052;BME280;53957;47.222;18.670;2022-12-26T13:39:43;100594.53;;;10.37;100.00
67052;BME280;53957;47.222;18.670;2022-12-26T13:43:00;100598.81;;;10.32;100.00
67052;BME280;53957;47.222;18.670;2022-12-26T13:46:52;100598.00;;;10.27;100.00
67052;BME280;53957;47.222;18.670;2022-12-26T13:49:57;100592.69;;;10.22;100.00
67052;BME280;53957;47.222;18.670;2022-12-26T13:53:00;100588.69;;;10.19;100.00
67052;BME280;53957;47.222;18.670;2022-12-26T13:56:13;100583.91;;;10.16;100.00
67052;BME280;53957;47.222;18.670;2022-12-26T13:59:39;100587.09;;;10.18;100.00
67052;BME280;53957;47.222;18.670;2022-12-26T14:06:25;100598.31;;;10.05;100.00
67052;BME280;53957;47.222;18.670;2022-12-26T14:09:42;100602.87;;;9.99;100.00
67052;BME280;53957;47.222;18.670;2022-12-26T14:16:12;100608.75;;;9.86;100.00
67052;BME280;53957;47.222;18.670;2022-12-26T14:29:10;100620.72;;;9.42;100.00
67052;BME280;53957;47.222;18.670;2022-12-26T14:52:38;100615.56;;;8.41;100.00
67052;BME280;53957;47.222;18.670;2022-12-26T14:55:51;100616.06;;;8.32;100.00
67052;BME280;53957;47.222;18.670;2022-12-26T15:02:30;100606.81;;;7.97;100.00
67052;BME280;53957;47.222;18.670;2022-12-26T15:05:37;100608.34;;;7.88;100.00
67052;BME280;53957;47.222;18.670;2022-12-26T15:12:53;100602.53;;;7.58;100.00
67052;BME280;53957;47.222;18.670;2022-12-26T15:33:28;100607.06;;;6.81;100.00
67052;BME280;53957;47.222;18.670;2022-12-26T15:43:28;100595.66;;;6.36;100.00
67052;BME280;53957;47.222;18.670;2022-12-26T15:46:43;100603.06;;;6.17;100.00
67052;BME280;53957;47.222;18.670;2022-12-26T16:00:29;100593.31;;;6.01;100.00
67052;BME280;53957;47.222;18.670;2022-12-26T16:07:06;100591.34;;;5.79;100.00
67052;BME280;53957;47.222;18.670;2022-12-26T16:10:33;100583.13;;;5.75;100.00
67052;BME280;53957;47.222;18.670;2022-12-26T16:14:34;100580.59;;;5.52;100.00
67052;BME280;53957;47.222;18.670;2022-12-26T16:17:39;100576.78;;;5.59;100.00
67052;BME280;53957;47.222;18.670;2022-12-26T16:20:44;100579.87;;;5.56;100.00
67052;BME280;53957;47.222;18.670;2022-12-26T16:24:07;100584.84;;;5.53;100.00
67052;BME280;53957;47.222;18.670;2022-12-26T16:27:15;100581.97;;;5.54;100.00
67052;BME280;53957;47.222;18.670;2022-12-26T16:30:25;100589.66;;;5.73;100.00
67052;BME280;53957;47.222;18.670;2022-12-26T16:33:31;100581.22;;;5.42;100.00
67052;BME280;53957;47.222;18.670;2022-12-26T16:36:35;100574.25;;;5.19;100.00
67052;BME280;53957;47.222;18.670;2022-12-26T16:39:38;100575.41;;;5.11;100.00
67052;BME280;53957;47.222;18.670;2022-12-26T16:42:43;100576.44;;;5.10;100.00
67052;BME280;53957;47.222;18.670;2022-12-26T16:45:49;100574.12;;;5.13;100.00
67052;BME280;53957;47.222;18.670;2022-12-26T16:49:01;100577.25;;;5.10;100.00
67052;BME280;53957;47.222;18.670;2022-12-26T16:52:04;100576.13;;;5.06;100.00
67052;BME280;53957;47.222;18.670;2022-12-26T16:58:38;100576.78;;;4.84;100.00
67052;BME280;53957;47.222;18.670;2022-12-26T17:01:41;100584.28;;;4.76;100.00
67052;BME280;53957;47.222;18.670;2022-12-26T17:04:52;100574.66;;;4.70;100.00
67052;BME280;53957;47.222;18.670;2022-12-26T17:08:01;100561.19;;;4.71;100.00
67052;BME280;53957;47.222;18.670;2022-12-26T17:11:04;100550.19;;;4.62;100.00
67052;BME280;53957;47.222;18.670;2022-12-26T17:14:23;100558.53;;;4.83;100.00
67052;BME280;53957;47.222;18.670;2022-12-26T17:17:36;100560.62;;;4.69;100.00
67052;BME280;53957;47.222;18.670;2022-12-26T17:20:40;100570.41;;;4.57;100.00
67052;BME280;53957;47.222;18.670;2022-12-26T17:23:43;100569.03;;;4.54;100.00
67052;BME280;53957;47.222;18.670;2022-12-26T17:30:23;100550.22;;;4.50;100.00
67052;BME280;53957;47.222;18.670;2022-12-26T17:33:32;100552.09;;;4.38;100.00
67052;BME280;53957;47.222;18.670;2022-12-26T17:36:36;100554.72;;;4.38;100.00
67052;BME280;53957;47.222;18.670;2022-12-26T17:40:05;100548.66;;;4.38;100.00
67052;BME280;53957;47.222;18.670;2022-12-26T17:46:16;100551.28;;;4.49;100.00
67052;BME280;53957;47.222;18.670;2022-12-26T17:49:20;100542.94;;;4.17;100.00
67052;BME280;53957;47.222;18.670;2022-12-26T17:52:27;100542.25;;;4.10;100.00
67052;BME280;53957;47.222;18.670;2022-12-26T17:55:31;100537.66;;;4.17;100.00
67052;BME280;53957;47.222;18.670;2022-12-26T17:58:43;100540.19;;;4.24;100.00
67052;BME280;53957;47.222;18.670;2022-12-26T18:01:46;100540.53;;;4.03;100.00
67052;BME280;53957;47.222;18.670;2022-12-26T18:04:49;100529.38;;;4.13;100.00
67052;BME280;53957;47.222;18.670;2022-12-26T18:07:57;100538.56;;;4.11;100.00
67052;BME280;53957;47.222;18.670;2022-12-26T18:11:27;100524.69;;;4.03;100.00
67052;BME280;53957;47.222;18.670;2022-12-26T18:14:57;100530.09;;;3.85;100.00
67052;BME280;53957;47.222;18.670;2022-12-26T18:21:37;100525.41;;;3.87;100.00
67052;BME280;53957;47.222;18.670;2022-12-26T18:24:50;100521.03;;;4.16;100.00
67052;BME280;53957;47.222;18.670;2022-12-26T18:27:54;100523.31;;;4.13;100.00
67052;BME280;53957;47.222;18.670;2022-12-26T18:30:58;100534.69;;;3.90;100.00
67052;BME280;53957;47.222;18.670;2022-12-26T18:34:21;100525.63;;;3.74;100.00
67052;BME280;53957;47.222;18.670;2022-12-26T18:37:27;100528.37;;;3.79;100.00
67052;BME280;53957;47.222;18.670;2022-12-26T18:40:37;100525.84;;;3.60;100.00
67052;BME280;53957;47.222;18.670;2022-12-26T18:43:43;100528.25;;;3.62;100.00
67052;BME280;53957;47.222;18.670;2022-12-26T18:46:46;100529.75;;;3.58;100.00
67052;BME280;53957;47.222;18.670;2022-12-26T18:49:57;100517.94;;;3.48;100.00
67052;BME280;53957;47.222;18.670;2022-12-26T18:53:20;100520.78;;;3.47;100.00
67052;BME280;53957;47.222;18.670;2022-12-26T18:56:25;100533.62;;;3.43;100.00
67052;BME280;53957;47.222;18.670;2022-12-26T18:59:28;100529.41;;;3.42;100.00
67052;BME280;53957;47.222;18.670;2022-12-26T19:02:31;100523.97;;;3.37;100.00
67052;BME280;53957;47.222;18.670;2022-12-26T19:05:34;100532.63;;;3.56;100.00
67052;BME280;53957;47.222;18.670;2022-12-26T19:08:38;100521.56;;;3.24;100.00
67052;BME280;53957;47.222;18.670;2022-12-26T19:11:41;100513.97;;;3.15;100.00
67052;BME280;53957;47.222;18.670;2022-12-26T19:14:45;100515.59;;;3.16;100.00
67052;BME280;53957;47.222;18.670;2022-12-26T19:17:48;100519.78;;;3.05;100.00
67052;BME280;53957;47.222;18.670;2022-12-26T19:20:51;100528.06;;;3.09;100.00
67052;BME280;53957;47.222;18.670;2022-12-26T19:23:54;100521.97;;;3.09;100.00
67052;BME280;53957;47.222;18.670;2022-12-26T19:26:59;100519.91;;;2.99;100.00
67052;BME280;53957;47.222;18.670;2022-12-26T19:30:04;100513.06;;;2.79;100.00
67052;BME280;53957;47.222;18.670;2022-12-26T19:33:28;100509.91;;;2.89;100.00
67052;BME280;53957;47.222;18.670;2022-12-26T19:36:50;100510.50;;;3.03;100.00
67052;BME280;53957;47.222;18.670;2022-12-26T19:39:55;100524.94;;;3.12;100.00